sensor_id;sensor_type;location;lat;lon;timestamp;pressure;altitude;pressure_sealevel;temperature;humidity
37778;BME280;23615;51.506;7.678;2023-02-14T00:01:13;101919.44;;;4.55;95.39
37778;BME280;23615;51.506;7.678;2023-02-14T00:03:38;101923.88;;;4.45;95.09
37778;BME280;23615;51.506;7.678;2023-02-14T00:06:08;101912.59;;;4.53;95.66
37778;BME280;23615;51.506;7.678;2023-02-14T00:08:33;101914.81;;;4.47;94.96
37778;BME280;23615;51.506;7.678;2023-02-14T00:10:59;101911.78;;;4.62;94.93
37778;BME280;23615;51.506;7.678;2023-02-14T00:13:24;101912.31;;;4.56;94.20
37778;BME280;23615;51.506;7.678;2023-02-14T00:15:49;101913.28;;;4.45;94.78
37778;BME280;23615;51.506;7.678;2023-02-14T00:18:14;101901.44;;;4.39;94.93
37778;BME280;23615;51.506;7.678;2023-02-14T00:20:40;101908.97;;;4.34;95.56
37778;BME280;23615;51.506;7.678;2023-02-14T00:23:05;101914.25;;;4.34;95.30
37778;BME280;23615;51.506;7.678;2023-02-14T00:25:33;101912.84;;;4.40;95.17
37778;BME280;23615;51.506;7.678;2023-02-14T00:27:58;101909.22;;;4.31;94.84
37778;BME280;23615;51.506;7.678;2023-02-14T00:30:23;101915.06;;;4.25;94.99
37778;BME280;23615;51.506;7.678;2023-02-14T00:32:49;101909.91;;;4.24;95.54
37778;BME280;23615;51.506;7.678;2023-02-14T00:35:14;101906.03;;;4.18;95.50
37778;BME280;23615;51.506;7.678;2023-02-14T00:37:39;101905.84;;;4.10;95.70
37778;BME280;23615;51.506;7.678;2023-02-14T00:40:05;101898.19;;;4.07;96.13
37778;BME280;23615;51.506;7.678;2023-02-14T00:42:31;101906.25;;;4.05;96.38
37778;BME280;23615;51.506;7.678;2023-02-14T00:44:56;101911.41;;;4.07;96.74
37778;BME280;23615;51.506;7.678;2023-02-14T00:47:21;101905.03;;;4.09;96.84
37778;BME280;23615;51.506;7.678;2023-02-14T00:49:47;101913.22;;;4.16;96.41
37778;BME280;23615;51.506;7.678;2023-02-14T00:52:12;101917.13;;;4.22;96.15
37778;BME280;23615;51.506;7.678;2023-02-14T00:54:37;101905.47;;;4.24;96.98
37778;BME280;23615;51.506;7.678;2023-02-14T00:57:03;101908.53;;;4.29;97.14
37778;BME280;23615;51.506;7.678;2023-02-14T00:59:28;101903.81;;;4.33;97.26
37778;BME280;23615;51.506;7.678;2023-02-14T01:01:53;101901.75;;;4.36;96.81
37778;BME280;23615;51.506;7.678;2023-02-14T01:04:19;101898.66;;;4.41;96.88
37778;BME280;23615;51.506;7.678;2023-02-14T01:06:44;101909.69;;;4.46;96.75
37778;BME280;23615;51.506;7.678;2023-02-14T01:09:09;101900.91;;;4.45;96.81
37778;BME280;23615;51.506;7.678;2023-02-14T01:11:34;101907.59;;;4.49;96.95
37778;BME280;23615;51.506;7.678;2023-02-14T01:14:00;101908.56;;;4.48;96.72
37778;BME280;23615;51.506;7.678;2023-02-14T01:16:27;101913.72;;;4.50;96.73
37778;BME280;23615;51.506;7.678;2023-02-14T01:18:52;101911.78;;;4.52;97.28
37778;BME280;23615;51.506;7.678;2023-02-14T01:21:23;101909.13;;;4.52;96.80
37778;BME280;23615;51.506;7.678;2023-02-14T01:23:51;101905.50;;;4.53;97.69
37778;BME280;23615;51.506;7.678;2023-02-14T01:26:18;101905.38;;;4.55;97.51
37778;BME280;23615;51.506;7.678;2023-02-14T01:28:44;101906.34;;;4.54;97.76
37778;BME280;23615;51.506;7.678;2023-02-14T01:31:13;101908.16;;;4.53;97.71
37778;BME280;23615;51.506;7.678;2023-02-14T01:33:40;101905.50;;;4.53;97.51
37778;BME280;23615;51.506;7.678;2023-02-14T01:36:06;101908.16;;;4.53;97.28
37778;BME280;23615;51.506;7.678;2023-02-14T01:38:31;101901.91;;;4.54;97.32
37778;BME280;23615;51.506;7.678;2023-02-14T01:40:57;101904.53;;;4.54;97.65
37778;BME280;23615;51.506;7.678;2023-02-14T01:43:22;101904.53;;;4.54;96.81
37778;BME280;23615;51.506;7.678;2023-02-14T01:45:47;101900.09;;;4.55;97.13
37778;BME280;23615;51.506;7.678;2023-02-14T01:48:13;101896.88;;;4.51;97.73
37778;BME280;23615;51.506;7.678;2023-02-14T01:50:42;101905.91;;;4.48;97.00
37778;BME280;23615;51.506;7.678;2023-02-14T01:53:11;101894.78;;;4.45;97.24
37778;BME280;23615;51.506;7.678;2023-02-14T01:55:51;101890.47;;;4.44;97.22
37778;BME280;23615;51.506;7.678;2023-02-14T01:58:23;101885.47;;;4.41;97.42
37778;BME280;23615;51.506;7.678;2023-02-14T02:00:49;101891.44;;;4.43;97.55
37778;BME280;23615;51.506;7.678;2023-02-14T02:03:43;101894.09;;;4.43;97.85
37778;BME280;23615;51.506;7.678;2023-02-14T02:06:17;101888.69;;;4.44;97.23
37778;BME280;23615;51.506;7.678;2023-02-14T02:11:18;101887.13;;;4.42;97.66
37778;BME280;23615;51.506;7.678;2023-02-14T02:13:43;101886.16;;;4.43;98.04
37778;BME280;23615;51.506;7.678;2023-02-14T02:21:38;101874.06;;;4.40;97.64
37778;BME280;23615;51.506;7.678;2023-02-14T02:24:31;101880.44;;;4.38;98.16
37778;BME280;23615;51.506;7.678;2023-02-14T02:27:23;101881.28;;;4.38;97.72
37778;BME280;23615;51.506;7.678;2023-02-14T02:30:33;101883.09;;;4.38;97.58
37778;BME280;23615;51.506;7.678;2023-02-14T02:36:00;101880.59;;;4.36;97.76
37778;BME280;23615;51.506;7.678;2023-02-14T02:38:47;101878.38;;;4.41;98.04
37778;BME280;23615;51.506;7.678;2023-02-14T02:43:55;101873.50;;;4.37;98.00
37778;BME280;23615;51.506;7.678;2023-02-14T02:58:21;101872.94;;;4.24;96.90
37778;BME280;23615;51.506;7.678;2023-02-14T03:00:51;101878.22;;;4.24;96.74
37778;BME280;23615;51.506;7.678;2023-02-14T03:03:18;101873.47;;;4.18;96.91
37778;BME280;23615;51.506;7.678;2023-02-14T03:06:04;101863.34;;;4.32;97.08
37778;BME280;23615;51.506;7.678;2023-02-14T03:08:30;101865.41;;;4.29;97.19
37778;BME280;23615;51.506;7.678;2023-02-14T03:10:55;101869.03;;;4.18;96.62
37778;BME280;23615;51.506;7.678;2023-02-14T03:13:45;101869.72;;;4.20;96.29
37778;BME280;23615;51.506;7.678;2023-02-14T03:19:01;101864.56;;;4.09;95.89
37778;BME280;23615;51.506;7.678;2023-02-14T03:21:43;101864.00;;;4.05;96.78
37778;BME280;23615;51.506;7.678;2023-02-14T03:30:00;101868.31;;;4.06;96.29
37778;BME280;23615;51.506;7.678;2023-02-14T03:35:19;101855.66;;;4.00;96.76
37778;BME280;23615;51.506;7.678;2023-02-14T03:37:51;101853.03;;;4.00;96.72
37778;BME280;23615;51.506;7.678;2023-02-14T03:40:39;101852.31;;;3.98;96.76
37778;BME280;23615;51.506;7.678;2023-02-14T03:43:16;101846.75;;;4.01;96.36
37778;BME280;23615;51.506;7.678;2023-02-14T03:45:51;101848.84;;;3.98;96.28
37778;BME280;23615;51.506;7.678;2023-02-14T03:48:19;101844.66;;;3.95;96.41
37778;BME280;23615;51.506;7.678;2023-02-14T03:50:48;101837.44;;;3.97;97.14
37778;BME280;23615;51.506;7.678;2023-02-14T03:53:19;101838.53;;;3.95;96.68
37778;BME280;23615;51.506;7.678;2023-02-14T03:55:51;101831.72;;;3.92;96.60
37778;BME280;23615;51.506;7.678;2023-02-14T03:58:23;101842.00;;;3.95;97.01
37778;BME280;23615;51.506;7.678;2023-02-14T04:00:55;101838.53;;;3.95;97.41
37778;BME280;23615;51.506;7.678;2023-02-14T04:03:24;101831.59;;;3.94;96.68
37778;BME280;23615;51.506;7.678;2023-02-14T04:05:51;101836.59;;;3.97;96.65
37778;BME280;23615;51.506;7.678;2023-02-14T04:08:22;101837.31;;;3.99;97.40
37778;BME280;23615;51.506;7.678;2023-02-14T04:10:49;101827.84;;;3.96;96.72
37778;BME280;23615;51.506;7.678;2023-02-14T04:13:14;101826.16;;;3.95;96.59
37778;BME280;23615;51.506;7.678;2023-02-14T04:15:40;101828.81;;;3.95;96.72
37778;BME280;23615;51.506;7.678;2023-02-14T04:18:05;101829.66;;;3.96;97.57
37778;BME280;23615;51.506;7.678;2023-02-14T04:20:49;101817.41;;;3.95;97.52
37778;BME280;23615;51.506;7.678;2023-02-14T04:23:14;101828.09;;;3.93;96.74
37778;BME280;23615;51.506;7.678;2023-02-14T04:25:40;101821.72;;;3.96;97.69
37778;BME280;23615;51.506;7.678;2023-02-14T04:28:07;101817.16;;;3.98;97.53
37778;BME280;23615;51.506;7.678;2023-02-14T04:30:32;101817.28;;;3.96;97.20
37778;BME280;23615;51.506;7.678;2023-02-14T04:32:57;101821.59;;;3.97;97.10
37778;BME280;23615;51.506;7.678;2023-02-14T04:35:23;101811.16;;;3.96;97.48
37778;BME280;23615;51.506;7.678;2023-02-14T04:37:48;101814.78;;;3.95;97.15
37778;BME280;23615;51.506;7.678;2023-02-14T04:40:13;101819.09;;;3.96;97.08
37778;BME280;23615;51.506;7.678;2023-02-14T04:42:41;101823.66;;;3.94;97.07
37778;BME280;23615;51.506;7.678;2023-02-14T04:45:07;101818.66;;;3.91;97.58
37778;BME280;23615;51.506;7.678;2023-02-14T04:47:32;101818.66;;;3.91;97.62
37778;BME280;23615;51.506;7.678;2023-02-14T04:49:57;101818.81;;;3.89;97.57
37778;BME280;23615;51.506;7.678;2023-02-14T04:52:23;101806.56;;;3.88;96.73
37778;BME280;23615;51.506;7.678;2023-02-14T04:54:48;101811.16;;;3.86;97.15
37778;BME280;23615;51.506;7.678;2023-02-14T04:57:13;101800.84;;;3.83;97.40
37778;BME280;23615;51.506;7.678;2023-02-14T04:59:39;101800.16;;;3.81;96.60
37778;BME280;23615;51.506;7.678;2023-02-14T05:02:04;101798.06;;;3.75;96.80
37778;BME280;23615;51.506;7.678;2023-02-14T05:04:29;101800.03;;;3.73;96.58
37778;BME280;23615;51.506;7.678;2023-02-14T05:06:54;101796.81;;;3.69;96.12
37778;BME280;23615;51.506;7.678;2023-02-14T05:09:20;101792.91;;;3.64;96.06
37778;BME280;23615;51.506;7.678;2023-02-14T05:11:45;101792.06;;;3.63;96.38
37778;BME280;23615;51.506;7.678;2023-02-14T05:14:10;101788.97;;;3.58;95.57
37778;BME280;23615;51.506;7.678;2023-02-14T05:16:39;101784.53;;;3.59;96.04
37778;BME280;23615;51.506;7.678;2023-02-14T05:19:04;101791.88;;;3.46;95.77
37778;BME280;23615;51.506;7.678;2023-02-14T05:21:30;101787.13;;;3.39;96.13
37778;BME280;23615;51.506;7.678;2023-02-14T05:23:58;101786.41;;;3.37;96.52
37778;BME280;23615;51.506;7.678;2023-02-14T05:26:23;101782.34;;;3.64;98.00
37778;BME280;23615;51.506;7.678;2023-02-14T05:28:49;101780.56;;;3.84;98.87
37778;BME280;23615;51.506;7.678;2023-02-14T05:31:14;101781.41;;;3.84;98.10
37778;BME280;23615;51.506;7.678;2023-02-14T05:33:39;101777.63;;;3.77;97.93
37778;BME280;23615;51.506;7.678;2023-02-14T05:36:05;101779.03;;;3.71;96.82
37778;BME280;23615;51.506;7.678;2023-02-14T05:38:30;101782.34;;;3.64;97.37
37778;BME280;23615;51.506;7.678;2023-02-14T05:40:57;101775.91;;;3.57;96.45
37778;BME280;23615;51.506;7.678;2023-02-14T05:43:22;101787.59;;;3.54;97.09
37778;BME280;23615;51.506;7.678;2023-02-14T05:45:48;101788.13;;;3.48;96.25
37778;BME280;23615;51.506;7.678;2023-02-14T05:48:13;101788.25;;;3.47;96.77
37778;BME280;23615;51.506;7.678;2023-02-14T05:50:39;101784.09;;;3.44;96.58
37778;BME280;23615;51.506;7.678;2023-02-14T05:53:07;101792.97;;;3.43;96.57
37778;BME280;23615;51.506;7.678;2023-02-14T05:55:32;101787.00;;;3.41;96.54
37778;BME280;23615;51.506;7.678;2023-02-14T05:57:57;101779.19;;;3.39;96.55
37778;BME280;23615;51.506;7.678;2023-02-14T06:00:23;101782.13;;;3.36;96.81
37778;BME280;23615;51.506;7.678;2023-02-14T06:02:49;101781.44;;;3.34;96.04
37778;BME280;23615;51.506;7.678;2023-02-14T06:05:14;101779.88;;;3.32;96.34
37778;BME280;23615;51.506;7.678;2023-02-14T06:07:42;101776.53;;;3.30;95.84
37778;BME280;23615;51.506;7.678;2023-02-14T06:10:12;101780.13;;;3.29;96.20
37778;BME280;23615;51.506;7.678;2023-02-14T06:12:38;101780.97;;;3.29;96.48
37778;BME280;23615;51.506;7.678;2023-02-14T06:15:03;101784.56;;;3.28;96.01
37778;BME280;23615;51.506;7.678;2023-02-14T06:17:29;101786.38;;;3.28;95.86
37778;BME280;23615;51.506;7.678;2023-02-14T06:19:54;101786.78;;;3.23;95.80
37778;BME280;23615;51.506;7.678;2023-02-14T06:22:19;101789.28;;;3.25;96.48
37778;BME280;23615;51.506;7.678;2023-02-14T06:24:45;101791.09;;;3.24;96.49
37778;BME280;23615;51.506;7.678;2023-02-14T06:27:10;101787.75;;;3.22;95.76
37778;BME280;23615;51.506;7.678;2023-02-14T06:29:36;101797.59;;;3.20;96.42
37778;BME280;23615;51.506;7.678;2023-02-14T06:32:01;101800.22;;;3.20;95.97
37778;BME280;23615;51.506;7.678;2023-02-14T06:34:31;101805.63;;;3.19;96.00
37778;BME280;23615;51.506;7.678;2023-02-14T06:36:57;101806.88;;;3.15;96.25
37778;BME280;23615;51.506;7.678;2023-02-14T06:39:22;101812.28;;;3.13;96.03
37778;BME280;23615;51.506;7.678;2023-02-14T06:41:47;101808.94;;;3.11;95.92
37778;BME280;23615;51.506;7.678;2023-02-14T06:44:12;101815.31;;;3.09;96.23
37778;BME280;23615;51.506;7.678;2023-02-14T06:46:38;101805.59;;;3.09;96.56
37778;BME280;23615;51.506;7.678;2023-02-14T06:49:03;101818.78;;;3.09;95.93
37778;BME280;23615;51.506;7.678;2023-02-14T06:51:28;101820.59;;;3.09;96.03
37778;BME280;23615;51.506;7.678;2023-02-14T06:53:54;101820.44;;;3.10;96.04
37778;BME280;23615;51.506;7.678;2023-02-14T06:56:19;101820.72;;;3.07;95.92
37778;BME280;23615;51.506;7.678;2023-02-14T06:58:44;101818.34;;;3.04;95.83
37778;BME280;23615;51.506;7.678;2023-02-14T07:01:09;101820.13;;;3.04;95.84
37778;BME280;23615;51.506;7.678;2023-02-14T07:03:35;101828.28;;;3.21;95.52
37778;BME280;23615;51.506;7.678;2023-02-14T07:06:00;101829.34;;;3.09;95.12
37778;BME280;23615;51.506;7.678;2023-02-14T07:08:28;101830.56;;;3.05;95.21
37778;BME280;23615;51.506;7.678;2023-02-14T07:10:57;101831.78;;;3.31;94.47
37778;BME280;23615;51.506;7.678;2023-02-14T07:13:25;101839.63;;;3.43;93.86
37778;BME280;23615;51.506;7.678;2023-02-14T07:15:50;101845.84;;;3.11;93.85
37778;BME280;23615;51.506;7.678;2023-02-14T07:18:16;101840.66;;;3.00;94.75
37778;BME280;23615;51.506;7.678;2023-02-14T07:20:41;101842.00;;;2.94;95.74
37778;BME280;23615;51.506;7.678;2023-02-14T07:23:08;101851.66;;;2.84;96.24
37778;BME280;23615;51.506;7.678;2023-02-14T07:25:34;101844.00;;;2.81;96.86
37778;BME280;23615;51.506;7.678;2023-02-14T07:28:05;101846.38;;;2.84;96.77
37778;BME280;23615;51.506;7.678;2023-02-14T07:30:34;101848.16;;;2.84;96.91
37778;BME280;23615;51.506;7.678;2023-02-14T07:33:28;101845.28;;;2.87;97.18
37778;BME280;23615;51.506;7.678;2023-02-14T07:36:12;101845.88;;;2.90;97.00
37778;BME280;23615;51.506;7.678;2023-02-14T07:38:45;101846.72;;;2.91;97.08
37778;BME280;23615;51.506;7.678;2023-02-14T07:41:10;101854.34;;;2.94;97.53
37778;BME280;23615;51.506;7.678;2023-02-14T07:43:35;101842.00;;;2.94;97.67
37778;BME280;23615;51.506;7.678;2023-02-14T07:46:01;101827.03;;;2.95;97.51
37778;BME280;23615;51.506;7.678;2023-02-14T07:48:27;101829.41;;;2.98;97.10
37778;BME280;23615;51.506;7.678;2023-02-14T07:50:52;101828.16;;;3.02;97.19
37778;BME280;23615;51.506;7.678;2023-02-14T07:53:20;101835.00;;;3.05;97.37
37778;BME280;23615;51.506;7.678;2023-02-14T07:55:48;101832.94;;;3.08;97.40
37778;BME280;23615;51.506;7.678;2023-02-14T07:58:14;101827.66;;;3.08;98.08
37778;BME280;23615;51.506;7.678;2023-02-14T08:00:39;101833.84;;;3.18;98.02
37778;BME280;23615;51.506;7.678;2023-02-14T08:03:04;101823.72;;;3.23;98.23
37778;BME280;23615;51.506;7.678;2023-02-14T08:05:29;101833.06;;;3.37;98.13
37778;BME280;23615;51.506;7.678;2023-02-14T08:07:55;101830.47;;;3.47;97.51
37778;BME280;23615;51.506;7.678;2023-02-14T08:10:20;101833.03;;;3.67;98.29
37778;BME280;23615;51.506;7.678;2023-02-14T08:12:45;101837.50;;;3.67;97.66
37778;BME280;23615;51.506;7.678;2023-02-14T08:15:23;101832.50;;;3.64;98.00
37778;BME280;23615;51.506;7.678;2023-02-14T08:18:07;101839.63;;;3.73;98.16
37778;BME280;23615;51.506;7.678;2023-02-14T08:20:33;101837.53;;;3.86;98.63
37778;BME280;23615;51.506;7.678;2023-02-14T08:22:58;101834.91;;;3.86;98.34
37778;BME280;23615;51.506;7.678;2023-02-14T08:25:23;101834.06;;;3.86;98.38
37778;BME280;23615;51.506;7.678;2023-02-14T08:27:49;101833.84;;;3.98;98.47
37778;BME280;23615;51.506;7.678;2023-02-14T08:30:14;101834.13;;;4.14;98.30
37778;BME280;23615;51.506;7.678;2023-02-14T08:32:40;101836.78;;;4.24;98.04
37778;BME280;23615;51.506;7.678;2023-02-14T08:35:05;101833.56;;;4.21;98.63
37778;BME280;23615;51.506;7.678;2023-02-14T08:37:31;101833.03;;;4.17;99.15
37778;BME280;23615;51.506;7.678;2023-02-14T08:39:56;101838.19;;;4.19;98.72
37778;BME280;23615;51.506;7.678;2023-02-14T08:42:21;101834.53;;;4.20;99.09
37778;BME280;23615;51.506;7.678;2023-02-14T08:44:47;101834.16;;;4.34;98.85
37778;BME280;23615;51.506;7.678;2023-02-14T08:47:12;101835.69;;;4.46;98.58
37778;BME280;23615;51.506;7.678;2023-02-14T08:49:37;101835.69;;;4.46;97.86
37778;BME280;23615;51.506;7.678;2023-02-14T08:52:03;101833.00;;;4.56;98.17
37778;BME280;23615;51.506;7.678;2023-02-14T08:54:28;101829.97;;;4.70;98.11
37778;BME280;23615;51.506;7.678;2023-02-14T08:56:53;101832.47;;;4.71;98.19
37778;BME280;23615;51.506;7.678;2023-02-14T08:59:18;101825.91;;;4.75;97.79
37778;BME280;23615;51.506;7.678;2023-02-14T09:01:44;101833.28;;;4.81;97.63
37778;BME280;23615;51.506;7.678;2023-02-14T09:04:09;101834.53;;;4.87;97.34
37778;BME280;23615;51.506;7.678;2023-02-14T09:06:36;101834.50;;;4.97;97.10
37778;BME280;23615;51.506;7.678;2023-02-14T09:09:02;101830.44;;;5.02;97.01
37778;BME280;23615;51.506;7.678;2023-02-14T09:11:28;101827.81;;;5.02;96.63
37778;BME280;23615;51.506;7.678;2023-02-14T09:13:53;101834.34;;;5.08;96.71
37778;BME280;23615;51.506;7.678;2023-02-14T09:16:20;101828.91;;;5.09;96.40
37778;BME280;23615;51.506;7.678;2023-02-14T09:18:47;101827.38;;;5.16;95.93
37778;BME280;23615;51.506;7.678;2023-02-14T09:21:15;101834.56;;;5.24;96.17
37778;BME280;23615;51.506;7.678;2023-02-14T09:23:41;101831.31;;;5.40;96.08
37778;BME280;23615;51.506;7.678;2023-02-14T09:26:09;101831.41;;;5.48;95.73
37778;BME280;23615;51.506;7.678;2023-02-14T09:28:34;101824.13;;;5.59;95.96
37778;BME280;23615;51.506;7.678;2023-02-14T09:31:08;101826.34;;;5.64;95.19
37778;BME280;23615;51.506;7.678;2023-02-14T09:33:33;101820.47;;;6.15;92.20
37778;BME280;23615;51.506;7.678;2023-02-14T09:35:59;101821.56;;;5.95;91.79
37778;BME280;23615;51.506;7.678;2023-02-14T09:38:43;101825.38;;;6.10;91.31
37778;BME280;23615;51.506;7.678;2023-02-14T09:41:11;101814.75;;;5.92;91.90
37778;BME280;23615;51.506;7.678;2023-02-14T09:43:54;101819.41;;;5.90;92.71
37778;BME280;23615;51.506;7.678;2023-02-14T09:46:25;101814.47;;;5.95;93.05
37778;BME280;23615;51.506;7.678;2023-02-14T09:48:52;101814.88;;;6.00;93.06
37778;BME280;23615;51.506;7.678;2023-02-14T09:51:20;101814.88;;;6.00;93.43
37778;BME280;23615;51.506;7.678;2023-02-14T09:54:10;101805.16;;;5.91;94.25
37778;BME280;23615;51.506;7.678;2023-02-14T09:56:50;101810.31;;;5.83;94.74
37778;BME280;23615;51.506;7.678;2023-02-14T09:59:28;101810.63;;;5.90;94.43
37778;BME280;23615;51.506;7.678;2023-02-14T10:02:08;101809.41;;;6.02;94.43
37778;BME280;23615;51.506;7.678;2023-02-14T10:04:48;101804.03;;;6.12;94.66
37778;BME280;23615;51.506;7.678;2023-02-14T10:07:39;101801.84;;;6.25;95.19
37778;BME280;23615;51.506;7.678;2023-02-14T10:10:35;101790.34;;;6.34;94.99
37778;BME280;23615;51.506;7.678;2023-02-14T10:13:24;101794.56;;;6.45;94.69
37778;BME280;23615;51.506;7.678;2023-02-14T10:16:17;101790.09;;;6.63;94.35
37778;BME280;23615;51.506;7.678;2023-02-14T10:18:55;101791.88;;;6.80;93.70
37778;BME280;23615;51.506;7.678;2023-02-14T10:21:40;101791.22;;;6.86;94.14
37778;BME280;23615;51.506;7.678;2023-02-14T10:24:17;101791.16;;;7.04;93.43
37778;BME280;23615;51.506;7.678;2023-02-14T10:26:47;101792.06;;;7.12;93.22
37778;BME280;23615;51.506;7.678;2023-02-14T10:29:15;101790.41;;;7.20;93.37
37778;BME280;23615;51.506;7.678;2023-02-14T10:31:49;101779.16;;;7.18;92.72
37778;BME280;23615;51.506;7.678;2023-02-14T10:34:28;101784.88;;;7.39;92.42
37778;BME280;23615;51.506;7.678;2023-02-14T10:43:00;101777.19;;;7.70;91.04
37778;BME280;23615;51.506;7.678;2023-02-14T10:45:38;101770.09;;;7.78;89.87
37778;BME280;23615;51.506;7.678;2023-02-14T10:51:09;101770.78;;;7.88;89.14
37778;BME280;23615;51.506;7.678;2023-02-14T10:54:15;101774.28;;;8.05;88.75
37778;BME280;23615;51.506;7.678;2023-02-14T10:57:04;101772.78;;;8.11;88.64
37778;BME280;23615;51.506;7.678;2023-02-14T10:59:56;101767.16;;;8.22;88.32
37778;BME280;23615;51.506;7.678;2023-02-14T11:02:29;101772.88;;;8.35;87.62
37778;BME280;23615;51.506;7.678;2023-02-14T11:04:56;101775.34;;;8.53;88.22
37778;BME280;23615;51.506;7.678;2023-02-14T11:07:21;101766.38;;;8.54;87.31
37778;BME280;23615;51.506;7.678;2023-02-14T11:09:47;101768.03;;;8.63;87.29
37778;BME280;23615;51.506;7.678;2023-02-14T11:12:39;101756.72;;;8.61;87.21
37778;BME280;23615;51.506;7.678;2023-02-14T11:15:21;101749.72;;;8.68;85.91
37778;BME280;23615;51.506;7.678;2023-02-14T11:17:48;101747.38;;;8.81;85.59
37778;BME280;23615;51.506;7.678;2023-02-14T11:22:42;101744.44;;;9.15;86.12
37778;BME280;23615;51.506;7.678;2023-02-14T11:25:22;101740.09;;;9.22;85.68
37778;BME280;23615;51.506;7.678;2023-02-14T11:28:01;101737.09;;;9.25;84.62
37778;BME280;23615;51.506;7.678;2023-02-14T11:30:33;101731.03;;;9.39;84.04
37778;BME280;23615;51.506;7.678;2023-02-14T11:33:00;101725.25;;;9.59;83.28
37778;BME280;23615;51.506;7.678;2023-02-14T11:35:28;101720.25;;;9.87;80.53
37778;BME280;23615;51.506;7.678;2023-02-14T11:38:01;101714.75;;;10.11;78.04
37778;BME280;23615;51.506;7.678;2023-02-14T11:40:38;101713.38;;;10.15;78.62
37778;BME280;23615;51.506;7.678;2023-02-14T11:45:39;101700.38;;;9.97;80.28
37778;BME280;23615;51.506;7.678;2023-02-14T11:48:25;101705.56;;;10.13;79.04
37778;BME280;23615;51.506;7.678;2023-02-14T11:50:59;101701.78;;;10.31;79.03
37778;BME280;23615;51.506;7.678;2023-02-14T11:53:46;101690.09;;;10.32;79.49
37778;BME280;23615;51.506;7.678;2023-02-14T11:56:14;101686.91;;;10.36;79.67
37778;BME280;23615;51.506;7.678;2023-02-14T12:01:10;101685.44;;;10.48;80.11
37778;BME280;23615;51.506;7.678;2023-02-14T12:03:47;101679.09;;;10.49;79.92
37778;BME280;23615;51.506;7.678;2023-02-14T12:06:26;101671.66;;;10.45;78.76
37778;BME280;23615;51.506;7.678;2023-02-14T12:12:05;101668.88;;;10.68;79.41
37778;BME280;23615;51.506;7.678;2023-02-14T12:14:39;101669.53;;;10.84;79.57
37778;BME280;23615;51.506;7.678;2023-02-14T12:17:29;101666.28;;;11.04;80.23
37778;BME280;23615;51.506;7.678;2023-02-14T12:20:09;101657.44;;;11.18;79.16
37778;BME280;23615;51.506;7.678;2023-02-14T12:22:44;101660.72;;;11.35;79.30
37778;BME280;23615;51.506;7.678;2023-02-14T12:25:14;101658.00;;;11.49;79.00
37778;BME280;23615;51.506;7.678;2023-02-14T12:27:47;101655.06;;;11.66;78.95
37778;BME280;23615;51.506;7.678;2023-02-14T12:30:18;101652.66;;;11.71;78.21
37778;BME280;23615;51.506;7.678;2023-02-14T12:32:51;101640.97;;;11.93;74.82
37778;BME280;23615;51.506;7.678;2023-02-14T12:38:21;101639.19;;;12.00;73.52
37778;BME280;23615;51.506;7.678;2023-02-14T12:40:54;101637.09;;;11.95;73.73
37778;BME280;23615;51.506;7.678;2023-02-14T12:44:28;101637.69;;;11.91;74.09
37778;BME280;23615;51.506;7.678;2023-02-14T12:46:39;101630.34;;;11.99;75.30
37778;BME280;23615;51.506;7.678;2023-02-14T12:49:35;101627.19;;;12.17;75.62
37778;BME280;23615;51.506;7.678;2023-02-14T13:10:49;101605.88;;;12.65;73.37
37778;BME280;23615;51.506;7.678;2023-02-14T13:13:50;101597.06;;;12.84;74.04
37778;BME280;23615;51.506;7.678;2023-02-14T13:16:53;101598.16;;;12.96;74.04
37778;BME280;23615;51.506;7.678;2023-02-14T13:19:36;101593.84;;;13.02;73.93
37778;BME280;23615;51.506;7.678;2023-02-14T13:22:07;101589.72;;;12.93;73.12
37778;BME280;23615;51.506;7.678;2023-02-14T13:24:41;101588.00;;;12.79;71.94
37778;BME280;23615;51.506;7.678;2023-02-14T13:27:15;101588.09;;;12.57;71.51
37778;BME280;23615;51.506;7.678;2023-02-14T13:29:49;101578.34;;;12.43;71.54
37778;BME280;23615;51.506;7.678;2023-02-14T13:32:19;101575.19;;;12.33;70.97
37778;BME280;23615;51.506;7.678;2023-02-14T13:34:47;101577.75;;;12.48;71.47
37778;BME280;23615;51.506;7.678;2023-02-14T13:37:18;101571.59;;;12.47;71.42
37778;BME280;23615;51.506;7.678;2023-02-14T13:39:48;101568.66;;;12.42;70.61
37778;BME280;23615;51.506;7.678;2023-02-14T13:48:05;101561.28;;;12.44;75.82
37778;BME280;23615;51.506;7.678;2023-02-14T13:50:54;101558.22;;;12.47;76.50
37778;BME280;23615;51.506;7.678;2023-02-14T13:53:34;101550.97;;;12.48;76.12
37778;BME280;23615;51.506;7.678;2023-02-14T13:56:05;101557.75;;;12.44;76.07
37778;BME280;23615;51.506;7.678;2023-02-14T13:58:53;101550.56;;;12.44;76.21
37778;BME280;23615;51.506;7.678;2023-02-14T14:20:29;101540.06;;;12.49;76.59
37778;BME280;23615;51.506;7.678;2023-02-14T14:23:01;101535.16;;;12.53;76.77
37778;BME280;23615;51.506;7.678;2023-02-14T14:25:38;101536.38;;;12.50;76.66
37778;BME280;23615;51.506;7.678;2023-02-14T14:28:21;101539.91;;;12.57;76.89
37778;BME280;23615;51.506;7.678;2023-02-14T14:30:48;101537.22;;;12.57;76.52
37778;BME280;23615;51.506;7.678;2023-02-14T14:33:15;101533.13;;;12.61;76.40
37778;BME280;23615;51.506;7.678;2023-02-14T14:35:52;101529.41;;;12.56;75.42
37778;BME280;23615;51.506;7.678;2023-02-14T14:38:18;101526.50;;;12.57;76.08
37778;BME280;23615;51.506;7.678;2023-02-14T14:40:45;101526.56;;;12.64;75.98
37778;BME280;23615;51.506;7.678;2023-02-14T14:43:20;101515.44;;;12.67;75.59
37778;BME280;23615;51.506;7.678;2023-02-14T14:45:48;101519.75;;;12.68;76.46
37778;BME280;23615;51.506;7.678;2023-02-14T14:48:22;101517.91;;;12.68;76.28
37778;BME280;23615;51.506;7.678;2023-02-14T14:50:49;101514.00;;;12.64;75.72
37778;BME280;23615;51.506;7.678;2023-02-14T14:53:24;101516.69;;;12.64;75.44
37778;BME280;23615;51.506;7.678;2023-02-14T14:55:51;101506.78;;;12.65;75.70
37778;BME280;23615;51.506;7.678;2023-02-14T14:58:34;101507.63;;;12.72;75.53